sensor_id;sensor_type;location;lat;lon;timestamp;P1;durP1;ratioP1;P2;durP2;ratioP2
21188;SDS011;39071;52.420;20.896;2023-01-16T00:01:09;4.17;;;1.17;;
21188;SDS011;39071;52.420;20.896;2023-01-16T00:03:35;2.07;;;1.37;;
21188;SDS011;39071;52.420;20.896;2023-01-16T00:06:01;3.53;;;1.27;;
21188;SDS011;39071;52.420;20.896;2023-01-16T00:08:27;1.10;;;0.87;;
21188;SDS011;39071;52.420;20.896;2023-01-16T00:10:53;1.23;;;0.80;;
21188;SDS011;39071;52.420;20.896;2023-01-16T00:13:18;2.00;;;1.10;;
21188;SDS011;39071;52.420;20.896;2023-01-16T00:15:45;2.47;;;0.73;;
21188;SDS011;39071;52.420;20.896;2023-01-16T00:18:12;2.33;;;1.30;;
21188;SDS011;39071;52.420;20.896;2023-01-16T00:20:38;3.70;;;1.57;;
21188;SDS011;39071;52.420;20.896;2023-01-16T00:23:04;0.87;;;0.87;;
21188;SDS011;39071;52.420;20.896;2023-01-16T00:25:30;1.57;;;1.30;;
21188;SDS011;39071;52.420;20.896;2023-01-16T00:27:55;1.20;;;0.90;;
21188;SDS011;39071;52.420;20.896;2023-01-16T00:30:21;2.43;;;1.10;;
21188;SDS011;39071;52.420;20.896;2023-01-16T00:32:47;3.03;;;0.97;;
21188;SDS011;39071;52.420;20.896;2023-01-16T00:35:13;3.77;;;1.47;;
21188;SDS011;39071;52.420;20.896;2023-01-16T00:37:39;1.70;;;0.77;;
21188;SDS011;39071;52.420;20.896;2023-01-16T00:40:05;1.00;;;0.77;;
21188;SDS011;39071;52.420;20.896;2023-01-16T00:42:31;2.20;;;0.60;;
21188;SDS011;39071;52.420;20.896;2023-01-16T00:44:57;2.00;;;0.90;;
21188;SDS011;39071;52.420;20.896;2023-01-16T00:47:22;1.50;;;1.03;;
21188;SDS011;39071;52.420;20.896;2023-01-16T00:49:48;1.57;;;1.00;;
21188;SDS011;39071;52.420;20.896;2023-01-16T00:52:14;2.40;;;0.90;;
21188;SDS011;39071;52.420;20.896;2023-01-16T00:54:40;1.17;;;0.90;;
21188;SDS011;39071;52.420;20.896;2023-01-16T00:57:05;2.90;;;1.07;;
21188;SDS011;39071;52.420;20.896;2023-01-16T00:59:31;3.10;;;1.83;;
21188;SDS011;39071;52.420;20.896;2023-01-16T01:01:57;3.80;;;1.43;;
21188;SDS011;39071;52.420;20.896;2023-01-16T01:04:22;1.90;;;0.73;;
21188;SDS011;39071;52.420;20.896;2023-01-16T01:06:48;1.17;;;0.90;;
21188;SDS011;39071;52.420;20.896;2023-01-16T01:09:15;2.03;;;1.60;;
21188;SDS011;39071;52.420;20.896;2023-01-16T01:11:40;4.77;;;1.20;;
21188;SDS011;39071;52.420;20.896;2023-01-16T01:14:06;0.87;;;0.70;;
21188;SDS011;39071;52.420;20.896;2023-01-16T01:16:32;2.17;;;1.10;;
21188;SDS011;39071;52.420;20.896;2023-01-16T01:18:58;3.13;;;1.07;;
21188;SDS011;39071;52.420;20.896;2023-01-16T01:21:23;2.73;;;0.90;;
21188;SDS011;39071;52.420;20.896;2023-01-16T01:23:49;2.10;;;1.13;;
21188;SDS011;39071;52.420;20.896;2023-01-16T01:26:16;4.03;;;1.00;;
21188;SDS011;39071;52.420;20.896;2023-01-16T01:28:43;2.63;;;0.90;;
21188;SDS011;39071;52.420;20.896;2023-01-16T01:31:10;3.40;;;1.27;;
21188;SDS011;39071;52.420;20.896;2023-01-16T01:33:37;2.20;;;1.10;;
21188;SDS011;39071;52.420;20.896;2023-01-16T01:36:04;2.03;;;1.13;;
21188;SDS011;39071;52.420;20.896;2023-01-16T01:38:31;2.83;;;0.83;;
21188;SDS011;39071;52.420;20.896;2023-01-16T01:40:57;1.37;;;0.93;;
21188;SDS011;39071;52.420;20.896;2023-01-16T01:49:03;2.50;;;0.90;;
21188;SDS011;39071;52.420;20.896;2023-01-16T01:51:34;2.13;;;0.77;;
21188;SDS011;39071;52.420;20.896;2023-01-16T01:54:07;3.20;;;0.83;;
21188;SDS011;39071;52.420;20.896;2023-01-16T01:56:39;4.33;;;1.07;;
21188;SDS011;39071;52.420;20.896;2023-01-16T01:59:11;3.03;;;0.77;;
21188;SDS011;39071;52.420;20.896;2023-01-16T02:01:41;3.10;;;1.43;;
21188;SDS011;39071;52.420;20.896;2023-01-16T02:04:09;2.43;;;1.77;;
21188;SDS011;39071;52.420;20.896;2023-01-16T02:06:46;3.63;;;1.00;;
21188;SDS011;39071;52.420;20.896;2023-01-16T02:09:15;2.63;;;1.17;;
21188;SDS011;39071;52.420;20.896;2023-01-16T02:11:50;3.00;;;1.30;;
21188;SDS011;39071;52.420;20.896;2023-01-16T02:14:27;5.73;;;1.10;;
21188;SDS011;39071;52.420;20.896;2023-01-16T02:16:56;0.70;;;0.70;;
21188;SDS011;39071;52.420;20.896;2023-01-16T02:19:54;3.33;;;0.73;;
21188;SDS011;39071;52.420;20.896;2023-01-16T02:31:18;2.10;;;0.90;;
21188;SDS011;39071;52.420;20.896;2023-01-16T02:34:17;2.10;;;0.60;;
21188;SDS011;39071;52.420;20.896;2023-01-16T02:39:47;2.70;;;1.47;;
21188;SDS011;39071;52.420;20.896;2023-01-16T02:42:33;0.70;;;0.70;;
21188;SDS011;39071;52.420;20.896;2023-01-16T02:48:12;3.53;;;1.13;;
21188;SDS011;39071;52.420;20.896;2023-01-16T02:50:52;0.93;;;0.50;;
21188;SDS011;39071;52.420;20.896;2023-01-16T02:53:37;2.93;;;1.17;;
21188;SDS011;39071;52.420;20.896;2023-01-16T02:56:18;0.70;;;0.57;;
21188;SDS011;39071;52.420;20.896;2023-01-16T02:58:49;1.43;;;0.80;;
21188;SDS011;39071;52.420;20.896;2023-01-16T03:01:17;0.93;;;0.63;;
21188;SDS011;39071;52.420;20.896;2023-01-16T03:09:23;0.53;;;0.53;;
21188;SDS011;39071;52.420;20.896;2023-01-16T03:14:51;0.93;;;0.80;;
21188;SDS011;39071;52.420;20.896;2023-01-16T03:17:47;2.63;;;0.57;;
21188;SDS011;39071;52.420;20.896;2023-01-16T03:20:39;5.73;;;1.73;;
21188;SDS011;39071;52.420;20.896;2023-01-16T03:23:08;0.97;;;0.80;;
21188;SDS011;39071;52.420;20.896;2023-01-16T03:25:48;2.33;;;1.53;;
21188;SDS011;39071;52.420;20.896;2023-01-16T03:31:14;0.70;;;0.70;;
21188;SDS011;39071;52.420;20.896;2023-01-16T03:33:51;1.57;;;0.97;;
21188;SDS011;39071;52.420;20.896;2023-01-16T03:39:11;1.97;;;0.80;;
21188;SDS011;39071;52.420;20.896;2023-01-16T03:41:40;1.87;;;1.23;;
21188;SDS011;39071;52.420;20.896;2023-01-16T03:44:14;2.30;;;1.20;;
21188;SDS011;39071;52.420;20.896;2023-01-16T03:46:50;1.33;;;0.90;;
21188;SDS011;39071;52.420;20.896;2023-01-16T03:49:50;1.90;;;1.17;;
21188;SDS011;39071;52.420;20.896;2023-01-16T03:52:11;0.60;;;0.60;;
21188;SDS011;39071;52.420;20.896;2023-01-16T03:54:45;1.70;;;0.90;;
21188;SDS011;39071;52.420;20.896;2023-01-16T03:57:28;2.10;;;0.80;;
21188;SDS011;39071;52.420;20.896;2023-01-16T04:00:02;0.57;;;0.53;;
21188;SDS011;39071;52.420;20.896;2023-01-16T04:07:42;1.83;;;0.80;;
21188;SDS011;39071;52.420;20.896;2023-01-16T04:10:20;2.53;;;0.97;;
21188;SDS011;39071;52.420;20.896;2023-01-16T04:12:50;2.67;;;1.10;;
21188;SDS011;39071;52.420;20.896;2023-01-16T04:15:21;0.80;;;0.60;;
21188;SDS011;39071;52.420;20.896;2023-01-16T04:17:50;1.63;;;1.13;;
21188;SDS011;39071;52.420;20.896;2023-01-16T04:20:16;2.87;;;0.80;;
21188;SDS011;39071;52.420;20.896;2023-01-16T04:22:46;1.13;;;1.00;;
21188;SDS011;39071;52.420;20.896;2023-01-16T04:25:14;2.57;;;0.70;;
21188;SDS011;39071;52.420;20.896;2023-01-16T04:27:41;1.77;;;0.80;;
21188;SDS011;39071;52.420;20.896;2023-01-16T04:30:07;4.13;;;1.63;;
21188;SDS011;39071;52.420;20.896;2023-01-16T04:32:33;2.80;;;1.33;;
21188;SDS011;39071;52.420;20.896;2023-01-16T04:34:59;5.77;;;1.53;;
21188;SDS011;39071;52.420;20.896;2023-01-16T04:37:24;2.30;;;1.23;;
21188;SDS011;39071;52.420;20.896;2023-01-16T04:39:50;1.63;;;0.97;;
21188;SDS011;39071;52.420;20.896;2023-01-16T04:42:16;2.33;;;0.97;;
21188;SDS011;39071;52.420;20.896;2023-01-16T04:44:42;2.37;;;1.47;;
21188;SDS011;39071;52.420;20.896;2023-01-16T04:47:08;5.47;;;2.50;;
21188;SDS011;39071;52.420;20.896;2023-01-16T04:49:33;2.93;;;1.23;;
21188;SDS011;39071;52.420;20.896;2023-01-16T04:51:59;4.23;;;2.20;;
21188;SDS011;39071;52.420;20.896;2023-01-16T04:54:25;4.57;;;1.50;;
21188;SDS011;39071;52.420;20.896;2023-01-16T04:56:51;2.03;;;1.67;;
21188;SDS011;39071;52.420;20.896;2023-01-16T04:59:16;3.77;;;1.30;;
21188;SDS011;39071;52.420;20.896;2023-01-16T05:01:45;1.23;;;0.93;;
21188;SDS011;39071;52.420;20.896;2023-01-16T05:04:11;2.63;;;1.10;;
21188;SDS011;39071;52.420;20.896;2023-01-16T05:06:38;2.23;;;2.03;;
21188;SDS011;39071;52.420;20.896;2023-01-16T05:09:05;2.23;;;1.27;;
21188;SDS011;39071;52.420;20.896;2023-01-16T05:11:31;8.43;;;1.87;;
21188;SDS011;39071;52.420;20.896;2023-01-16T05:13:57;2.33;;;1.33;;
21188;SDS011;39071;52.420;20.896;2023-01-16T05:16:23;2.73;;;1.57;;
21188;SDS011;39071;52.420;20.896;2023-01-16T05:18:49;1.90;;;1.03;;
21188;SDS011;39071;52.420;20.896;2023-01-16T05:21:14;3.57;;;1.30;;
21188;SDS011;39071;52.420;20.896;2023-01-16T05:23:40;2.63;;;1.17;;
21188;SDS011;39071;52.420;20.896;2023-01-16T05:26:06;2.73;;;1.30;;
21188;SDS011;39071;52.420;20.896;2023-01-16T05:28:32;10.33;;;2.60;;
21188;SDS011;39071;52.420;20.896;2023-01-16T05:30:59;5.90;;;1.63;;
21188;SDS011;39071;52.420;20.896;2023-01-16T05:33:25;2.80;;;2.00;;
21188;SDS011;39071;52.420;20.896;2023-01-16T05:35:51;5.17;;;1.47;;
21188;SDS011;39071;52.420;20.896;2023-01-16T05:38:18;3.47;;;1.73;;
21188;SDS011;39071;52.420;20.896;2023-01-16T05:40:44;3.03;;;1.57;;
21188;SDS011;39071;52.420;20.896;2023-01-16T05:43:10;8.87;;;2.30;;
21188;SDS011;39071;52.420;20.896;2023-01-16T05:45:36;2.27;;;1.77;;
21188;SDS011;39071;52.420;20.896;2023-01-16T05:48:02;1.87;;;1.13;;
21188;SDS011;39071;52.420;20.896;2023-01-16T05:50:28;3.37;;;1.67;;
21188;SDS011;39071;52.420;20.896;2023-01-16T05:52:54;3.40;;;1.60;;
21188;SDS011;39071;52.420;20.896;2023-01-16T05:55:20;1.80;;;0.93;;
21188;SDS011;39071;52.420;20.896;2023-01-16T05:57:49;2.20;;;1.20;;
21188;SDS011;39071;52.420;20.896;2023-01-16T06:00:14;4.60;;;1.80;;
21188;SDS011;39071;52.420;20.896;2023-01-16T06:02:41;6.63;;;1.80;;
21188;SDS011;39071;52.420;20.896;2023-01-16T06:05:07;1.23;;;0.80;;
21188;SDS011;39071;52.420;20.896;2023-01-16T06:07:33;4.73;;;2.03;;
21188;SDS011;39071;52.420;20.896;2023-01-16T06:09:58;1.70;;;1.30;;
21188;SDS011;39071;52.420;20.896;2023-01-16T06:12:24;3.03;;;1.80;;
21188;SDS011;39071;52.420;20.896;2023-01-16T06:14:50;3.83;;;1.53;;
21188;SDS011;39071;52.420;20.896;2023-01-16T06:17:16;3.07;;;1.47;;
21188;SDS011;39071;52.420;20.896;2023-01-16T06:19:43;2.53;;;1.13;;
21188;SDS011;39071;52.420;20.896;2023-01-16T06:22:10;11.57;;;2.63;;
21188;SDS011;39071;52.420;20.896;2023-01-16T06:24:37;12.03;;;4.10;;
21188;SDS011;39071;52.420;20.896;2023-01-16T06:27:03;13.20;;;5.17;;
21188;SDS011;39071;52.420;20.896;2023-01-16T06:29:28;3.30;;;1.93;;
21188;SDS011;39071;52.420;20.896;2023-01-16T06:31:54;6.53;;;2.00;;
21188;SDS011;39071;52.420;20.896;2023-01-16T06:34:20;4.63;;;2.67;;
21188;SDS011;39071;52.420;20.896;2023-01-16T06:36:49;10.63;;;2.50;;
21188;SDS011;39071;52.420;20.896;2023-01-16T06:39:15;7.73;;;2.53;;
21188;SDS011;39071;52.420;20.896;2023-01-16T06:41:41;1.13;;;0.87;;
21188;SDS011;39071;52.420;20.896;2023-01-16T06:44:07;5.63;;;1.80;;
21188;SDS011;39071;52.420;20.896;2023-01-16T06:46:34;6.87;;;2.10;;
21188;SDS011;39071;52.420;20.896;2023-01-16T06:49:00;4.80;;;1.70;;
21188;SDS011;39071;52.420;20.896;2023-01-16T06:51:26;3.40;;;1.63;;
21188;SDS011;39071;52.420;20.896;2023-01-16T06:53:52;6.30;;;2.90;;
21188;SDS011;39071;52.420;20.896;2023-01-16T06:56:17;4.03;;;2.00;;
21188;SDS011;39071;52.420;20.896;2023-01-16T06:58:44;2.97;;;1.97;;
21188;SDS011;39071;52.420;20.896;2023-01-16T07:01:10;2.87;;;1.50;;
21188;SDS011;39071;52.420;20.896;2023-01-16T07:03:35;5.03;;;2.20;;
21188;SDS011;39071;52.420;20.896;2023-01-16T07:06:01;3.40;;;1.97;;
21188;SDS011;39071;52.420;20.896;2023-01-16T07:08:28;2.73;;;1.70;;
21188;SDS011;39071;52.420;20.896;2023-01-16T07:10:54;8.87;;;3.30;;
21188;SDS011;39071;52.420;20.896;2023-01-16T07:13:23;3.57;;;2.00;;
21188;SDS011;39071;52.420;20.896;2023-01-16T07:15:53;2.30;;;1.13;;
21188;SDS011;39071;52.420;20.896;2023-01-16T07:18:38;1.77;;;1.33;;
21188;SDS011;39071;52.420;20.896;2023-01-16T07:21:23;4.87;;;1.60;;
21188;SDS011;39071;52.420;20.896;2023-01-16T07:24:10;2.33;;;1.30;;
21188;SDS011;39071;52.420;20.896;2023-01-16T07:26:40;3.03;;;1.27;;
21188;SDS011;39071;52.420;20.896;2023-01-16T07:29:08;2.73;;;1.47;;
21188;SDS011;39071;52.420;20.896;2023-01-16T07:31:34;2.77;;;1.07;;
21188;SDS011;39071;52.420;20.896;2023-01-16T07:34:01;1.03;;;0.93;;
21188;SDS011;39071;52.420;20.896;2023-01-16T07:36:27;2.67;;;1.43;;
21188;SDS011;39071;52.420;20.896;2023-01-16T07:38:52;3.20;;;1.97;;
21188;SDS011;39071;52.420;20.896;2023-01-16T07:41:18;2.47;;;0.93;;
21188;SDS011;39071;52.420;20.896;2023-01-16T07:43:44;2.63;;;2.03;;
21188;SDS011;39071;52.420;20.896;2023-01-16T07:46:09;4.47;;;1.70;;
21188;SDS011;39071;52.420;20.896;2023-01-16T07:48:35;2.37;;;1.00;;
21188;SDS011;39071;52.420;20.896;2023-01-16T07:51:01;3.00;;;1.53;;
21188;SDS011;39071;52.420;20.896;2023-01-16T07:53:28;2.83;;;1.53;;
21188;SDS011;39071;52.420;20.896;2023-01-16T07:55:55;4.10;;;2.03;;
21188;SDS011;39071;52.420;20.896;2023-01-16T07:58:23;4.27;;;1.93;;
21188;SDS011;39071;52.420;20.896;2023-01-16T08:00:49;4.13;;;1.73;;
21188;SDS011;39071;52.420;20.896;2023-01-16T08:03:17;4.43;;;2.53;;
21188;SDS011;39071;52.420;20.896;2023-01-16T08:05:43;3.90;;;1.87;;
21188;SDS011;39071;52.420;20.896;2023-01-16T08:08:09;2.77;;;1.53;;
21188;SDS011;39071;52.420;20.896;2023-01-16T08:10:35;3.83;;;1.57;;
21188;SDS011;39071;52.420;20.896;2023-01-16T08:13:01;2.00;;;1.17;;
21188;SDS011;39071;52.420;20.896;2023-01-16T08:15:27;4.87;;;2.50;;
21188;SDS011;39071;52.420;20.896;2023-01-16T08:17:53;5.23;;;1.73;;
21188;SDS011;39071;52.420;20.896;2023-01-16T08:20:19;2.33;;;1.37;;
21188;SDS011;39071;52.420;20.896;2023-01-16T08:22:45;4.87;;;2.03;;
21188;SDS011;39071;52.420;20.896;2023-01-16T08:25:13;2.00;;;1.20;;
21188;SDS011;39071;52.420;20.896;2023-01-16T08:27:40;1.80;;;1.27;;
21188;SDS011;39071;52.420;20.896;2023-01-16T08:30:08;2.80;;;1.57;;
21188;SDS011;39071;52.420;20.896;2023-01-16T08:32:34;3.13;;;1.67;;
21188;SDS011;39071;52.420;20.896;2023-01-16T08:35:00;5.50;;;2.07;;
21188;SDS011;39071;52.420;20.896;2023-01-16T08:37:29;3.47;;;1.97;;
21188;SDS011;39071;52.420;20.896;2023-01-16T08:39:55;5.07;;;1.83;;
21188;SDS011;39071;52.420;20.896;2023-01-16T08:42:21;3.33;;;1.33;;
21188;SDS011;39071;52.420;20.896;2023-01-16T08:45:10;7.17;;;1.93;;
21188;SDS011;39071;52.420;20.896;2023-01-16T08:47:55;2.20;;;1.03;;
21188;SDS011;39071;52.420;20.896;2023-01-16T08:50:42;3.27;;;2.47;;
21188;SDS011;39071;52.420;20.896;2023-01-16T08:53:27;2.27;;;1.73;;
21188;SDS011;39071;52.420;20.896;2023-01-16T08:55:53;2.87;;;1.10;;
21188;SDS011;39071;52.420;20.896;2023-01-16T08:58:19;3.53;;;1.83;;
21188;SDS011;39071;52.420;20.896;2023-01-16T09:00:48;2.37;;;1.30;;
21188;SDS011;39071;52.420;20.896;2023-01-16T09:03:14;2.63;;;1.03;;
21188;SDS011;39071;52.420;20.896;2023-01-16T09:05:42;3.77;;;2.17;;
21188;SDS011;39071;52.420;20.896;2023-01-16T09:08:08;4.40;;;2.17;;
21188;SDS011;39071;52.420;20.896;2023-01-16T09:10:34;3.37;;;1.93;;
21188;SDS011;39071;52.420;20.896;2023-01-16T09:12:59;5.80;;;2.13;;
21188;SDS011;39071;52.420;20.896;2023-01-16T09:15:44;6.53;;;1.90;;
21188;SDS011;39071;52.420;20.896;2023-01-16T09:18:09;1.90;;;1.13;;
21188;SDS011;39071;52.420;20.896;2023-01-16T09:20:35;5.30;;;1.47;;
21188;SDS011;39071;52.420;20.896;2023-01-16T09:23:01;2.20;;;1.60;;
21188;SDS011;39071;52.420;20.896;2023-01-16T09:25:28;3.43;;;1.70;;
21188;SDS011;39071;52.420;20.896;2023-01-16T09:27:55;5.17;;;1.37;;
21188;SDS011;39071;52.420;20.896;2023-01-16T09:30:21;3.43;;;1.37;;
21188;SDS011;39071;52.420;20.896;2023-01-16T09:32:47;5.03;;;2.07;;
21188;SDS011;39071;52.420;20.896;2023-01-16T09:35:13;2.63;;;2.13;;
21188;SDS011;39071;52.420;20.896;2023-01-16T09:37:39;4.00;;;1.50;;
21188;SDS011;39071;52.420;20.896;2023-01-16T09:40:09;4.30;;;2.07;;
21188;SDS011;39071;52.420;20.896;2023-01-16T09:45:51;5.00;;;1.83;;
21188;SDS011;39071;52.420;20.896;2023-01-16T09:48:32;3.17;;;1.67;;
21188;SDS011;39071;52.420;20.896;2023-01-16T09:51:04;5.80;;;1.93;;
21188;SDS011;39071;52.420;20.896;2023-01-16T09:53:43;2.73;;;1.67;;
21188;SDS011;39071;52.420;20.896;2023-01-16T09:56:40;3.10;;;1.50;;
21188;SDS011;39071;52.420;20.896;2023-01-16T09:59:28;3.63;;;1.70;;
21188;SDS011;39071;52.420;20.896;2023-01-16T10:02:05;3.43;;;2.03;;
21188;SDS011;39071;52.420;20.896;2023-01-16T10:04:47;4.67;;;2.83;;
21188;SDS011;39071;52.420;20.896;2023-01-16T10:12:34;3.63;;;2.10;;
21188;SDS011;39071;52.420;20.896;2023-01-16T10:15:04;2.93;;;1.10;;
21188;SDS011;39071;52.420;20.896;2023-01-16T10:17:54;3.93;;;1.60;;
21188;SDS011;39071;52.420;20.896;2023-01-16T10:23:19;2.17;;;1.17;;
21188;SDS011;39071;52.420;20.896;2023-01-16T10:26:15;3.47;;;1.43;;
21188;SDS011;39071;52.420;20.896;2023-01-16T10:31:46;3.87;;;2.00;;
21188;SDS011;39071;52.420;20.896;2023-01-16T10:34:17;5.23;;;2.13;;
21188;SDS011;39071;52.420;20.896;2023-01-16T10:36:54;2.63;;;1.40;;
21188;SDS011;39071;52.420;20.896;2023-01-16T10:39:24;3.33;;;1.37;;
21188;SDS011;39071;52.420;20.896;2023-01-16T10:41:58;3.90;;;2.07;;
21188;SDS011;39071;52.420;20.896;2023-01-16T10:47:52;2.90;;;2.33;;
21188;SDS011;39071;52.420;20.896;2023-01-16T10:50:36;2.60;;;1.30;;
21188;SDS011;39071;52.420;20.896;2023-01-16T10:53:06;6.73;;;3.13;;
21188;SDS011;39071;52.420;20.896;2023-01-16T10:55:34;5.27;;;1.67;;
21188;SDS011;39071;52.420;20.896;2023-01-16T10:58:05;5.30;;;1.93;;
21188;SDS011;39071;52.420;20.896;2023-01-16T11:00:49;8.20;;;2.40;;
21188;SDS011;39071;52.420;20.896;2023-01-16T11:06:07;2.37;;;1.63;;
21188;SDS011;39071;52.420;20.896;2023-01-16T11:08:38;6.40;;;3.57;;
21188;SDS011;39071;52.420;20.896;2023-01-16T11:11:07;3.73;;;1.53;;
21188;SDS011;39071;52.420;20.896;2023-01-16T11:13:55;3.03;;;1.27;;
21188;SDS011;39071;52.420;20.896;2023-01-16T11:16:39;5.23;;;2.20;;
21188;SDS011;39071;52.420;20.896;2023-01-16T11:19:26;2.93;;;1.53;;
21188;SDS011;39071;52.420;20.896;2023-01-16T11:21:57;6.50;;;2.10;;
21188;SDS011;39071;52.420;20.896;2023-01-16T11:24:35;4.20;;;1.97;;
21188;SDS011;39071;52.420;20.896;2023-01-16T11:27:05;4.67;;;2.23;;
21188;SDS011;39071;52.420;20.896;2023-01-16T11:29:38;7.77;;;2.27;;
21188;SDS011;39071;52.420;20.896;2023-01-16T11:32:08;3.80;;;1.43;;
21188;SDS011;39071;52.420;20.896;2023-01-16T11:34:38;3.20;;;1.43;;
21188;SDS011;39071;52.420;20.896;2023-01-16T11:37:10;5.07;;;2.13;;
21188;SDS011;39071;52.420;20.896;2023-01-16T11:39:39;5.10;;;3.30;;
21188;SDS011;39071;52.420;20.896;2023-01-16T11:42:11;7.07;;;2.70;;
21188;SDS011;39071;52.420;20.896;2023-01-16T11:44:57;5.20;;;2.43;;
21188;SDS011;39071;52.420;20.896;2023-01-16T11:47:50;3.67;;;2.23;;
21188;SDS011;39071;52.420;20.896;2023-01-16T11:50:35;4.13;;;1.93;;
21188;SDS011;39071;52.420;20.896;2023-01-16T11:53:01;2.73;;;1.13;;
21188;SDS011;39071;52.420;20.896;2023-01-16T11:55:38;6.50;;;2.27;;
21188;SDS011;39071;52.420;20.896;2023-01-16T11:58:11;7.50;;;2.97;;
21188;SDS011;39071;52.420;20.896;2023-01-16T12:00:49;4.27;;;2.20;;
21188;SDS011;39071;52.420;20.896;2023-01-16T12:09:33;3.23;;;2.10;;
21188;SDS011;39071;52.420;20.896;2023-01-16T12:15:29;11.20;;;2.53;;
21188;SDS011;39071;52.420;20.896;2023-01-16T12:25:58;2.17;;;1.43;;
21188;SDS011;39071;52.420;20.896;2023-01-16T12:31:51;3.67;;;1.70;;
21188;SDS011;39071;52.420;20.896;2023-01-16T12:42:04;4.57;;;2.83;;
21188;SDS011;39071;52.420;20.896;2023-01-16T12:45:07;5.00;;;1.90;;
21188;SDS011;39071;52.420;20.896;2023-01-16T12:56:00;3.80;;;2.30;;
21188;SDS011;39071;52.420;20.896;2023-01-16T12:58:39;6.97;;;2.50;;
21188;SDS011;39071;52.420;20.896;2023-01-16T13:06:31;8.10;;;3.00;;
21188;SDS011;39071;52.420;20.896;2023-01-16T13:09:00;6.43;;;3.50;;
21188;SDS011;39071;52.420;20.896;2023-01-16T13:11:36;6.33;;;3.60;;
21188;SDS011;39071;52.420;20.896;2023-01-16T13:14:28;6.07;;;2.33;;
21188;SDS011;39071;52.420;20.896;2023-01-16T13:17:03;5.50;;;2.57;;
21188;SDS011;39071;52.420;20.896;2023-01-16T13:19:37;7.47;;;3.10;;
21188;SDS011;39071;52.420;20.896;2023-01-16T13:22:10;7.10;;;3.20;;
21188;SDS011;39071;52.420;20.896;2023-01-16T13:24:46;7.07;;;3.30;;
21188;SDS011;39071;52.420;20.896;2023-01-16T13:27:17;8.77;;;3.70;;
21188;SDS011;39071;52.420;20.896;2023-01-16T13:29:59;7.60;;;3.63;;
21188;SDS011;39071;52.420;20.896;2023-01-16T13:32:29;6.83;;;3.20;;
21188;SDS011;39071;52.420;20.896;2023-01-16T13:35:12;5.00;;;2.40;;
21188;SDS011;39071;52.420;20.896;2023-01-16T13:43:08;6.90;;;3.23;;
21188;SDS011;39071;52.420;20.896;2023-01-16T13:45:59;7.17;;;3.27;;
21188;SDS011;39071;52.420;20.896;2023-01-16T13:48:33;9.20;;;3.20;;
21188;SDS011;39071;52.420;20.896;2023-01-16T13:51:20;8.03;;;3.27;;
21188;SDS011;39071;52.420;20.896;2023-01-16T13:53:52;9.20;;;3.67;;
21188;SDS011;39071;52.420;20.896;2023-01-16T13:56:24;3.80;;;2.73;;
21188;SDS011;39071;52.420;20.896;2023-01-16T13:58:58;7.83;;;3.20;;
21188;SDS011;39071;52.420;20.896;2023-01-16T14:06:43;9.90;;;3.93;;
21188;SDS011;39071;52.420;20.896;2023-01-16T14:09:19;6.63;;;3.07;;
21188;SDS011;39071;52.420;20.896;2023-01-16T14:14:34;9.10;;;3.27;;
21188;SDS011;39071;52.420;20.896;2023-01-16T14:20:33;10.70;;;4.37;;
21188;SDS011;39071;52.420;20.896;2023-01-16T14:23:12;7.53;;;2.83;;
21188;SDS011;39071;52.420;20.896;2023-01-16T14:26:19;4.93;;;2.77;;
21188;SDS011;39071;52.420;20.896;2023-01-16T14:28:48;8.27;;;3.77;;
21188;SDS011;39071;52.420;20.896;2023-01-16T14:31:26;9.00;;;2.60;;
21188;SDS011;39071;52.420;20.896;2023-01-16T14:34:00;14.07;;;4.10;;
21188;SDS011;39071;52.420;20.896;2023-01-16T14:36:27;6.43;;;3.87;;
21188;SDS011;39071;52.420;20.896;2023-01-16T14:38:54;4.67;;;2.70;;
21188;SDS011;39071;52.420;20.896;2023-01-16T14:41:24;8.00;;;3.37;;
21188;SDS011;39071;52.420;20.896;2023-01-16T14:44:15;8.83;;;4.73;;
21188;SDS011;39071;52.420;20.896;2023-01-16T14:50:06;8.70;;;3.67;;
21188;SDS011;39071;52.420;20.896;2023-01-16T14:55:53;5.37;;;3.03;;
21188;SDS011;39071;52.420;20.896;2023-01-16T14:58:43;6.53;;;3.27;;
21188;SDS011;39071;52.420;20.896;2023-01-16T15:01:26;6.03;;;2.83;;
21188;SDS011;39071;52.420;20.896;2023-01-16T15:04:40;5.70;;;3.27;;
21188;SDS011;39071;52.420;20.896;2023-01-16T15:07:14;9.60;;;3.33;;
21188;SDS011;39071;52.420;20.896;2023-01-16T15:09:42;8.20;;;3.40;;
21188;SDS011;39071;52.420;20.896;2023-01-16T15:12:13;6.63;;;3.77;;
21188;SDS011;39071;52.420;20.896;2023-01-16T15:14:55;8.97;;;3.40;;
21188;SDS011;39071;52.420;20.896;2023-01-16T15:17:33;13.63;;;3.50;;
21188;SDS011;39071;52.420;20.896;2023-01-16T15:20:21;7.63;;;3.47;;
21188;SDS011;39071;52.420;20.896;2023-01-16T15:23:25;10.87;;;5.87;;
21188;SDS011;39071;52.420;20.896;2023-01-16T15:31:30;9.43;;;4.53;;
21188;SDS011;39071;52.420;20.896;2023-01-16T15:36:44;15.80;;;6.13;;
21188;SDS011;39071;52.420;20.896;2023-01-16T15:44:56;10.27;;;4.47;;
21188;SDS011;39071;52.420;20.896;2023-01-16T15:50:48;11.90;;;5.17;;
21188;SDS011;39071;52.420;20.896;2023-01-16T15:53:23;18.97;;;6.13;;
21188;SDS011;39071;52.420;20.896;2023-01-16T15:55:55;10.33;;;4.33;;
21188;SDS011;39071;52.420;20.896;2023-01-16T15:58:28;8.50;;;4.53;;
21188;SDS011;39071;52.420;20.896;2023-01-16T16:00:56;10.17;;;4.70;;
21188;SDS011;39071;52.420;20.896;2023-01-16T16:03:23;12.40;;;4.87;;
21188;SDS011;39071;52.420;20.896;2023-01-16T16:06:03;13.90;;;6.33;;
21188;SDS011;39071;52.420;20.896;2023-01-16T16:08:38;12.70;;;5.37;;
21188;SDS011;39071;52.420;20.896;2023-01-16T16:11:19;24.57;;;8.17;;
21188;SDS011;39071;52.420;20.896;2023-01-16T16:14:12;16.07;;;5.23;;
21188;SDS011;39071;52.420;20.896;2023-01-16T16:17:02;19.63;;;7.13;;
21188;SDS011;39071;52.420;20.896;2023-01-16T16:19:48;19.07;;;7.47;;
21188;SDS011;39071;52.420;20.896;2023-01-16T16:22:16;10.23;;;5.23;;
21188;SDS011;39071;52.420;20.896;2023-01-16T16:25:16;17.73;;;5.67;;
21188;SDS011;39071;52.420;20.896;2023-01-16T16:27:44;13.47;;;6.40;;
21188;SDS011;39071;52.420;20.896;2023-01-16T16:30:21;17.70;;;7.87;;
21188;SDS011;39071;52.420;20.896;2023-01-16T16:32:51;12.63;;;5.97;;
21188;SDS011;39071;52.420;20.896;2023-01-16T16:35:39;19.70;;;7.10;;
21188;SDS011;39071;52.420;20.896;2023-01-16T16:38:04;14.63;;;6.10;;
21188;SDS011;39071;52.420;20.896;2023-01-16T16:40:42;17.10;;;6.97;;
21188;SDS011;39071;52.420;20.896;2023-01-16T16:43:08;21.73;;;6.63;;
21188;SDS011;39071;52.420;20.896;2023-01-16T16:45:34;17.47;;;6.33;;
21188;SDS011;39071;52.420;20.896;2023-01-16T16:48:18;24.93;;;6.73;;
21188;SDS011;39071;52.420;20.896;2023-01-16T16:51:14;18.10;;;6.30;;
21188;SDS011;39071;52.420;20.896;2023-01-16T16:53:46;12.70;;;4.50;;
21188;SDS011;39071;52.420;20.896;2023-01-16T16:56:20;14.87;;;5.97;;
21188;SDS011;39071;52.420;20.896;2023-01-16T16:58:49;12.47;;;5.27;;
21188;SDS011;39071;52.420;20.896;2023-01-16T17:01:16;17.00;;;5.63;;
21188;SDS011;39071;52.420;20.896;2023-01-16T17:03:44;20.97;;;7.90;;
21188;SDS011;39071;52.420;20.896;2023-01-16T17:06:14;15.90;;;7.60;;
21188;SDS011;39071;52.420;20.896;2023-01-16T17:08:43;11.93;;;5.83;;
21188;SDS011;39071;52.420;20.896;2023-01-16T17:11:12;11.13;;;5.77;;
21188;SDS011;39071;52.420;20.896;2023-01-16T17:13:38;11.70;;;6.93;;
21188;SDS011;39071;52.420;20.896;2023-01-16T17:16:05;17.67;;;6.93;;
21188;SDS011;39071;52.420;20.896;2023-01-16T17:18:38;16.67;;;6.07;;
21188;SDS011;39071;52.420;20.896;2023-01-16T17:21:04;15.23;;;6.53;;
21188;SDS011;39071;52.420;20.896;2023-01-16T17:23:29;11.63;;;6.00;;